Weather at Santa Barbara I Airport

Public forecast

Using degrees Celsius for public forecast. Weather courtesy of forecast.io.

Closest aviation weather report (METAR) to Santa Barbara I Airport

Report is more than 6 hours old.

Closest report is Ciudad Obregón International Airport, 9.3 nm (17.2 km) ESE. Retrieved 2020/12/04 00:48 UTC (9 hours ago):

MMCN 040048Z 25005KT 8SM SKC 16/02 A2991 RMK HZY

Closest aviation forecast (TAF) to Santa Barbara I Airport

Closest forecast is Ciudad Obregón International Airport, 9.3 nm (17.2 km) ESE. Retrieved 2020/12/04 06:44 UTC (3 hours ago):

TAF MMCN 040537Z 0406/0506 25005KT 6SM HZ SKC FM041800 33015KT P6SM SKC FM050400 03010KT 6SM HZ SKC